Time;durP1;ratioP1;P1;durP2;ratioP2;P2;SDS_P1;SDS_P2;PMS_P1;PMS_P2;Temp;Humidity;BMP_temperature;BMP_pressure;BME280_temperature;BME280_humidity;BME280_pressure;Samples;Min_cycle;Max_cycle;Signal;HPM_P1;HPM_P2
2024/04/16 00:00:39;;;;;;;4.68;0.63;;;;;;;6.78;71.80;99663.75;5361433;26;20000;-51
2024/04/16 00:03:05;;;;;;;5.13;0.80;;;;;;;6.26;74.74;99664.91;5392848;26;20467;-53
2024/04/16 00:05:31;;;;;;;3.45;0.52;;;;;;;6.51;72.40;99661.75;5363315;26;20027;-52
2024/04/16 00:07:57;;;;;;;7.22;0.60;;;;;;;6.85;70.93;99638.38;5365224;26;20332;-54
2024/04/16 00:10:23;;;;;;;2.92;0.57;;;;;;;6.44;73.39;99629.69;5354852;26;19997;-55
2024/04/16 00:12:49;;;;;;;3.45;0.40;;;;;;;6.98;71.23;99608.94;5353149;26;20011;-50
2024/04/16 00:15:30;;;;;;;1.42;0.50;;;;;;;6.75;71.26;99617.19;5368400;26;19996;-50
2024/04/16 00:17:57;;;;;;;3.53;0.30;;;;;;;6.54;71.66;99629.69;5398661;26;20020;-54
2024/04/16 00:20:22;;;;;;;7.72;0.52;;;;;;;6.62;71.39;99626.34;5364289;26;20593;-48
2024/04/16 00:22:48;;;;;;;0.82;0.32;;;;;;;6.33;72.28;99628.94;5353077;26;20331;-50
2024/04/16 00:25:14;;;;;;;1.77;0.55;;;;;;;6.71;70.08;99630.81;5345942;26;20012;-52
2024/04/16 00:27:40;;;;;;;1.88;0.40;;;;;;;6.49;70.94;99632.75;5353860;26;20328;-51
2024/04/16 00:30:06;;;;;;;1.73;0.40;;;;;;;6.15;71.32;99628.78;5363707;26;20000;-48
2024/04/16 00:32:32;;;;;;;3.42;0.30;;;;;;;6.17;72.68;99632.16;5371645;26;20000;-51
2024/04/16 00:34:58;;;;;;;0.95;0.50;;;;;;;6.13;72.83;99640.47;5362339;26;20020;-53
2024/04/16 00:37:23;;;;;;;2.85;0.50;;;;;;;6.12;72.45;99637.03;5388737;26;20090;-52
2024/04/16 00:39:49;;;;;;;0.60;0.30;;;;;;;6.31;71.19;99639.69;5371053;26;20324;-52
2024/04/16 00:42:15;;;;;;;0.13;0.13;;;;;;;6.04;73.13;99639.50;5337499;26;20012;-51
2024/04/16 00:44:41;;;;;;;2.50;0.55;;;;;;;6.60;70.54;99645.00;5365312;26;20498;-53
2024/04/16 00:47:08;;;;;;;0.25;0.20;;;;;;;6.41;72.35;99640.53;5348489;26;20016;-53
2024/04/16 00:49:35;;;;;;;0.45;0.30;;;;;;;6.22;70.72;99637.88;5366660;26;20008;-53
2024/04/16 00:52:02;;;;;;;1.35;0.28;;;;;;;6.42;70.49;99633.44;5370253;26;20010;-45
2024/04/16 00:54:28;;;;;;;2.53;0.30;;;;;;;6.70;70.17;99643.22;5359980;26;19996;-54
2024/04/16 00:56:56;;;;;;;1.65;0.40;;;;;;;6.11;71.08;99637.16;5352282;26;20004;-51
2024/04/16 00:59:26;;;;;;;0.57;0.30;;;;;;;6.20;70.68;99629.22;5365087;26;20004;-51
2024/04/16 01:01:55;;;;;;;2.13;0.50;;;;;;;6.44;70.99;99629.69;5365410;26;20000;-50
2024/04/16 01:04:22;;;;;;;1.52;1.20;;;;;;;6.60;70.45;99633.59;5395202;26;20001;-52
2024/04/16 01:06:51;;;;;;;1.25;0.32;;;;;;;6.56;70.71;99624.25;5363553;26;20549;-55
2024/04/16 01:09:18;;;;;;;4.70;0.50;;;;;;;6.66;71.11;99618.00;5366843;26;20530;-48
2024/04/16 01:11:48;;;;;;;2.17;0.30;;;;;;;6.82;70.01;99620.09;5355508;26;20015;-48
2024/04/16 01:14:14;;;;;;;0.20;0.20;;;;;;;6.48;71.40;99620.50;5366139;26;19997;-50
2024/04/16 01:16:40;;;;;;;2.47;0.50;;;;;;;6.80;71.58;99614.13;5364624;26;19992;-54
2024/04/16 01:19:08;;;;;;;1.02;0.32;;;;;;;6.96;70.21;99603.78;5387093;26;20019;-53
2024/04/16 01:21:34;;;;;;;0.90;0.50;;;;;;;6.71;70.78;99607.00;5370622;26;20000;-49
2024/04/16 01:24:00;;;;;;;1.30;0.30;;;;;;;6.93;70.48;99601.44;5369911;26;20015;-52
2024/04/16 01:26:26;;;;;;;1.55;0.40;;;;;;;6.74;71.25;99589.03;5370420;26;20004;-52
2024/04/16 01:28:51;;;;;;;1.48;0.50;;;;;;;6.60;72.82;99596.56;5370884;26;20068;-52
2024/04/16 01:31:17;;;;;;;2.28;0.35;;;;;;;6.36;73.04;99592.47;5352580;26;20019;-50
2024/04/16 01:33:43;;;;;;;2.90;0.60;;;;;;;6.27;74.43;99585.38;5369893;26;20004;-52
2024/04/16 01:36:09;;;;;;;0.40;0.25;;;;;;;6.38;74.03;99587.91;5362094;26;20008;-51
2024/04/16 01:38:35;;;;;;;0.93;0.57;;;;;;;6.40;74.30;99590.38;5370711;26;20324;-49
2024/04/16 01:41:04;;;;;;;4.20;0.70;;;;;;;6.43;75.33;99580.38;5337489;26;20008;-53
2024/04/16 01:43:30;;;;;;;2.30;0.73;;;;;;;6.32;74.07;99582.31;5369350;26;20015;-50
2024/04/16 01:45:56;;;;;;;1.05;0.57;;;;;;;6.76;73.13;99573.00;5369395;26;20004;-52
2024/04/16 01:48:22;;;;;;;4.50;1.10;;;;;;;6.58;74.07;99575.50;5353934;26;20436;-53
2024/04/16 01:50:50;;;;;;;2.90;0.80;;;;;;;6.28;76.55;99575.63;5364241;26;19996;-48
2024/04/16 01:53:16;;;;;;;3.95;0.93;;;;;;;6.40;75.80;99574.50;5362984;26;20015;-50
2024/04/16 01:55:42;;;;;;;1.17;0.60;;;;;;;6.69;74.49;99566.56;5357782;26;20781;-51
2024/04/16 01:58:08;;;;;;;1.50;0.60;;;;;;;6.36;76.20;99581.06;5359217;26;20000;-47
2024/04/16 02:00:34;;;;;;;5.88;0.80;;;;;;;6.45;75.97;99567.84;5356342;26;20513;-50
2024/04/16 02:03:02;;;;;;;3.83;0.90;;;;;;;7.00;73.85;99557.50;5345947;26;20009;-55
2024/04/16 02:05:28;;;;;;;3.83;1.00;;;;;;;6.84;73.80;99559.91;5364594;26;20008;-49
2024/04/16 02:07:54;;;;;;;4.13;0.80;;;;;;;7.14;73.48;99559.72;5372053;26;20019;-50
2024/04/16 02:10:20;;;;;;;3.60;1.00;;;;;;;7.00;74.06;99562.81;5370014;26;20000;-53
2024/04/16 02:12:45;;;;;;;2.08;0.88;;;;;;;6.89;74.42;99552.34;5400396;26;19996;-51
2024/04/16 02:15:11;;;;;;;2.83;0.70;;;;;;;7.06;73.33;99550.78;5362345;26;19997;-50
2024/04/16 02:17:40;;;;;;;3.60;0.77;;;;;;;6.45;74.05;99549.31;5365106;26;20073;-49
2024/04/16 02:20:07;;;;;;;2.92;0.68;;;;;;;6.84;74.47;99538.72;5398252;26;19997;-52
2024/04/16 02:22:32;;;;;;;2.92;0.70;;;;;;;6.66;73.86;99530.63;5369390;26;20004;-53
2024/04/16 02:24:58;;;;;;;2.70;0.50;;;;;;;6.63;73.89;99530.91;5366011;26;20436;-47
2024/04/16 02:27:24;;;;;;;0.70;0.40;;;;;;;6.60;74.57;99520.59;5392927;26;20369;-51
2024/04/16 02:29:50;;;;;;;1.15;0.45;;;;;;;6.37;75.34;99521.88;5384719;26;20370;-51
2024/04/16 02:32:15;;;;;;;3.33;0.82;;;;;;;6.41;74.70;99517.97;5371958;26;20070;-50
2024/04/16 02:34:41;;;;;;;6.47;0.95;;;;;;;6.52;73.98;99515.19;5352268;26;19992;-50
2024/04/16 02:37:07;;;;;;;3.30;0.60;;;;;;;6.59;73.45;99520.75;5367550;26;19996;-51
2024/04/16 02:39:33;;;;;;;3.88;0.88;;;;;;;6.59;74.73;99504.88;5354868;26;20488;-53
2024/04/16 02:41:58;;;;;;;5.80;0.93;;;;;;;6.80;74.10;99514.31;5394384;26;20019;-51
2024/04/16 02:44:24;;;;;;;5.40;0.82;;;;;;;6.62;73.67;99500.09;5362806;26;20015;-54
2024/04/16 02:46:50;;;;;;;4.97;1.23;;;;;;;6.31;74.53;99502.09;5370636;26;20015;-51
2024/04/16 02:49:16;;;;;;;2.30;0.60;;;;;;;6.30;75.72;99499.59;5370768;26;20000;-53
2024/04/16 02:51:41;;;;;;;3.95;0.60;;;;;;;6.47;75.25;99504.16;5383527;26;20067;-52
2024/04/16 02:54:07;;;;;;;4.55;0.90;;;;;;;6.33;74.98;99496.66;5366984;26;20349;-49
2024/04/16 02:56:33;;;;;;;5.65;0.88;;;;;;;6.45;75.63;99490.25;5362572;26;20436;-53
2024/04/16 02:58:59;;;;;;;5.97;0.80;;;;;;;6.24;76.09;99489.56;5370005;26;19996;-51
2024/04/16 03:01:24;;;;;;;5.05;1.00;;;;;;;6.88;74.37;99492.41;5338696;26;20012;-53
2024/04/16 03:03:54;;;;;;;4.40;0.85;;;;;;;6.80;73.25;99493.13;5385496;26;20015;-50
2024/04/16 03:06:20;;;;;;;4.97;1.52;;;;;;;6.75;74.30;99497.19;5361161;26;20453;-52
2024/04/16 03:08:46;;;;;;;7.63;0.80;;;;;;;6.90;73.50;99485.16;5371504;26;20032;-51
2024/04/16 03:11:12;;;;;;;6.45;0.98;;;;;;;6.61;74.67;99479.06;5364367;26;20011;-52
2024/04/16 03:13:38;;;;;;;10.68;1.67;;;;;;;6.97;74.32;99478.31;5367147;26;20445;-51
2024/04/16 03:16:07;;;;;;;8.65;0.98;;;;;;;7.02;73.05;99464.63;5391062;26;19996;-48
2024/04/16 03:18:33;;;;;;;4.80;1.23;;;;;;;7.17;73.04;99458.72;5367886;26;20011;-53
2024/04/16 03:21:00;;;;;;;4.47;1.00;;;;;;;7.02;73.49;99451.38;5364636;26;20462;-53
2024/04/16 03:23:26;;;;;;;4.00;0.85;;;;;;;7.11;72.86;99453.16;5359863;26;20482;-53
2024/04/16 03:25:52;;;;;;;6.60;1.00;;;;;;;7.27;72.47;99440.13;5359209;26;20004;-50
2024/04/16 03:28:19;;;;;;;5.70;0.90;;;;;;;7.21;73.04;99433.59;5369850;26;20000;-50
2024/04/16 03:30:44;;;;;;;8.50;1.02;;;;;;;7.34;73.19;99432.44;5370506;26;20015;-53
2024/04/16 03:33:10;;;;;;;8.20;1.30;;;;;;;7.43;72.02;99428.84;5362839;26;20008;-51
2024/04/16 03:35:36;;;;;;;5.53;1.33;;;;;;;7.41;72.17;99429.03;5360453;26;20431;-54
2024/04/16 03:38:02;;;;;;;3.53;1.05;;;;;;;7.68;71.16;99425.50;5357692;26;20023;-51
2024/04/16 03:40:28;;;;;;;8.90;1.42;;;;;;;7.59;71.67;99427.22;5367323;26;20004;-50
2024/04/16 03:42:53;;;;;;;2.13;0.95;;;;;;;7.69;70.90;99421.88;5385276;26;20424;-52
2024/04/16 03:45:19;;;;;;;7.78;1.02;;;;;;;7.45;71.23;99425.09;5364228;26;20015;-50
2024/04/16 03:47:45;;;;;;;5.85;0.90;;;;;;;7.43;72.24;99415.59;5368347;26;19999;-50
2024/04/16 03:50:11;;;;;;;9.13;1.23;;;;;;;7.38;72.98;99412.56;5369107;26;20484;-51
2024/04/16 03:52:40;;;;;;;7.88;1.40;;;;;;;7.11;72.48;99411.63;5366201;26;20015;-51
2024/04/16 03:55:05;;;;;;;7.93;1.08;;;;;;;7.47;72.26;99398.44;5334866;26;20011;-53
2024/04/16 03:57:31;;;;;;;11.02;1.15;;;;;;;7.44;72.24;99404.03;5338324;26;20336;-49
2024/04/16 04:02:41;;;;;;;12.15;1.50;;;;;;;7.63;73.06;99409.19;5368549;26;20000;-55
2024/04/16 04:05:07;;;;;;;5.43;1.00;;;;;;;7.48;73.86;99397.47;5365124;26;20001;-52
2024/04/16 04:07:33;;;;;;;6.80;1.20;;;;;;;7.60;74.09;99390.94;5363730;26;20443;-54
2024/04/16 04:09:59;;;;;;;7.65;1.02;;;;;;;7.62;72.36;99389.78;5341348;26;20009;-52
2024/04/16 04:12:25;;;;;;;4.85;1.00;;;;;;;7.71;73.29;99385.41;5363265;26;20004;-50
2024/04/16 04:14:50;;;;;;;5.63;1.05;;;;;;;7.25;73.87;99386.44;5345490;26;20007;-49
2024/04/16 04:17:17;;;;;;;5.65;1.15;;;;;;;7.14;75.52;99382.19;5349406;26;20001;-53
2024/04/16 04:19:43;;;;;;;8.18;0.90;;;;;;;7.72;73.14;99383.59;5367366;26;20019;-52
2024/04/16 04:22:09;;;;;;;4.15;1.13;;;;;;;7.49;74.31;99370.78;5362114;26;20064;-47
2024/04/16 04:24:35;;;;;;;10.35;1.60;;;;;;;7.44;74.06;99375.72;5367712;26;20001;-50
2024/04/16 04:27:02;;;;;;;7.53;1.95;;;;;;;7.18;74.63;99367.66;5366152;26;20332;-48
2024/04/16 04:29:29;;;;;;;8.05;1.20;;;;;;;7.40;75.00;99365.56;5372271;26;20001;-51
2024/04/16 04:31:55;;;;;;;7.00;1.10;;;;;;;7.15;76.00;99370.59;5359711;26;20000;-52
2024/04/16 04:34:21;;;;;;;5.80;1.60;;;;;;;7.43;75.04;99359.94;5369201;26;20004;-51
2024/04/16 04:36:47;;;;;;;7.13;1.25;;;;;;;7.40;75.29;99352.31;5358810;26;20004;-49
2024/04/16 04:39:12;;;;;;;3.50;1.10;;;;;;;7.01;74.93;99354.38;5382895;26;20347;-49
2024/04/16 04:41:38;;;;;;;7.88;1.17;;;;;;;7.06;76.39;99346.81;5353776;26;20034;-56
2024/04/16 04:44:04;;;;;;;5.53;1.35;;;;;;;6.87;76.60;99337.16;5361960;26;20480;-53
2024/04/16 04:46:30;;;;;;;3.85;1.30;;;;;;;7.47;75.13;99348.91;5350024;26;20012;-50
2024/04/16 04:48:56;;;;;;;1.98;1.20;;;;;;;7.13;76.25;99346.06;5388386;26;20036;-54
2024/04/16 04:51:21;;;;;;;7.50;1.50;;;;;;;6.96;77.72;99330.13;5398735;26;20000;-51
2024/04/16 04:53:47;;;;;;;8.20;1.73;;;;;;;7.10;76.16;99338.41;5371708;26;20004;-50
2024/04/16 04:56:13;;;;;;;4.45;1.90;;;;;;;6.81;76.87;99335.09;5367459;26;20444;-51
2024/04/16 04:58:38;;;;;;;5.00;2.00;;;;;;;6.85;77.29;99325.88;5371647;26;20000;-50
2024/04/16 05:01:04;;;;;;;8.07;3.47;;;;;;;7.20;76.17;99328.59;5349283;26;20012;-48
2024/04/16 05:03:30;;;;;;;2.58;1.75;;;;;;;6.76;77.92;99326.75;5362293;26;20004;-51
2024/04/16 05:05:56;;;;;;;2.80;1.83;;;;;;;6.91;76.86;99325.28;5367011;26;20075;-53
2024/04/16 05:08:23;;;;;;;11.50;2.25;;;;;;;6.93;76.35;99320.69;5352045;26;20799;-53
2024/04/16 05:10:50;;;;;;;7.22;1.83;;;;;;;7.20;75.13;99318.00;5393512;26;20008;-50
2024/04/16 05:13:16;;;;;;;5.90;2.00;;;;;;;7.21;74.74;99319.66;5331237;26;20012;-52
2024/04/16 05:15:44;;;;;;;4.03;2.03;;;;;;;7.05;75.38;99314.19;5393380;26;20003;-51
2024/04/16 05:18:10;;;;;;;6.03;2.17;;;;;;;7.35;75.76;99315.63;5364420;26;20378;-49
2024/04/16 05:20:36;;;;;;;5.15;1.90;;;;;;;7.28;75.42;99310.09;5365489;26;19999;-53
2024/04/16 05:23:02;;;;;;;5.20;2.10;;;;;;;7.41;74.83;99316.88;5329876;26;20009;-49
2024/04/16 05:25:28;;;;;;;5.25;2.25;;;;;;;6.78;76.09;99320.34;5359202;26;20000;-49
2024/04/16 05:27:53;;;;;;;7.07;1.83;;;;;;;6.97;76.18;99319.41;5336997;26;20004;-47
2024/04/16 05:30:19;;;;;;;5.45;1.90;;;;;;;7.27;74.78;99318.22;5386417;26;20036;-53
2024/04/16 05:32:45;;;;;;;3.88;1.67;;;;;;;7.36;73.84;99317.31;5308286;26;20004;-53
2024/04/16 05:35:11;;;;;;;4.35;1.58;;;;;;;6.55;77.65;99318.19;5356448;26;20073;-55
2024/04/16 05:37:36;;;;;;;5.40;1.30;;;;;;;6.81;76.29;99316.53;5368480;26;20012;-52
2024/04/16 05:40:02;;;;;;;7.53;1.95;;;;;;;7.11;75.55;99318.88;5369095;26;20324;-52
2024/04/16 05:42:28;;;;;;;5.32;1.65;;;;;;;7.14;75.35;99313.31;5370531;26;20019;-53
2024/04/16 05:44:54;;;;;;;5.70;1.42;;;;;;;6.60;75.24;99311.47;5368233;26;20015;-53
2024/04/16 05:47:20;;;;;;;2.65;1.13;;;;;;;7.14;75.02;99315.94;5366772;26;20005;-51
2024/04/16 05:49:46;;;;;;;1.45;1.08;;;;;;;6.79;75.92;99306.13;5367750;26;19996;-50
2024/04/16 05:52:12;;;;;;;3.08;1.38;;;;;;;7.00;74.83;99313.81;5370277;26;20563;-52
2024/04/16 05:54:38;;;;;;;4.65;1.30;;;;;;;6.49;75.30;99309.84;5364160;26;20439;-51
2024/04/16 05:57:04;;;;;;;1.98;0.90;;;;;;;6.47;75.98;99310.97;5382866;26;20479;-53
2024/04/16 05:59:31;;;;;;;3.65;1.42;;;;;;;7.20;74.37;99314.53;5386018;26;20004;-53
2024/04/16 06:01:57;;;;;;;5.07;1.30;;;;;;;7.41;73.41;99316.88;5372118;26;20511;-53
2024/04/16 06:04:23;;;;;;;0.95;0.80;;;;;;;6.97;73.01;99307.97;5363842;26;20041;-52
2024/04/16 06:06:48;;;;;;;2.15;0.85;;;;;;;7.45;71.70;99315.56;5364651;26;20042;-50
2024/04/16 06:09:14;;;;;;;2.20;0.80;;;;;;;7.26;72.62;99319.22;5371238;26;20769;-53
2024/04/16 06:11:40;;;;;;;4.20;1.05;;;;;;;6.73;73.24;99330.50;5361022;26;20006;-50
2024/04/16 06:14:06;;;;;;;3.15;1.00;;;;;;;7.17;73.32;99325.41;5376686;26;20353;-54
2024/04/16 06:16:32;;;;;;;2.65;0.98;;;;;;;7.54;72.90;99336.72;5357408;26;20383;-51
2024/04/16 06:18:57;;;;;;;1.90;1.00;;;;;;;7.45;72.75;99342.09;5350080;26;20454;-52
2024/04/16 06:21:23;;;;;;;4.05;1.20;;;;;;;7.49;72.13;99341.63;5353720;26;20001;-54
2024/04/16 06:23:50;;;;;;;2.92;1.10;;;;;;;7.34;72.48;99337.00;5369033;26;20011;-52
2024/04/16 06:26:16;;;;;;;4.10;1.60;;;;;;;7.31;73.26;99346.09;5353692;26;19997;-51
2024/04/16 06:28:42;;;;;;;5.80;1.25;;;;;;;7.26;72.50;99348.34;5367225;26;20880;-49
2024/04/16 06:31:07;;;;;;;2.65;1.10;;;;;;;7.22;72.74;99354.91;5370120;26;20019;-54
2024/04/16 06:33:36;;;;;;;3.00;0.90;;;;;;;7.07;73.13;99357.28;5374768;26;20038;-52
2024/04/16 06:36:05;;;;;;;2.92;0.80;;;;;;;6.87;74.36;99359.16;5367962;26;20000;-52
2024/04/16 06:38:32;;;;;;;3.67;0.90;;;;;;;7.19;73.50;99355.25;5369024;26;20011;-53
2024/04/16 06:40:59;;;;;;;1.48;0.80;;;;;;;7.25;72.64;99358.13;5368511;26;20343;-52
2024/04/16 06:43:28;;;;;;;2.50;0.80;;;;;;;7.36;73.40;99364.19;5349773;26;20526;-52
2024/04/16 06:45:55;;;;;;;3.50;1.23;;;;;;;7.33;72.10;99361.84;5370221;26;20015;-47
2024/04/16 06:48:22;;;;;;;2.63;0.80;;;;;;;7.37;73.43;99368.50;5368610;26;20004;-55
2024/04/16 06:50:48;;;;;;;1.83;0.70;;;;;;;7.04;73.51;99360.19;5369739;26;20015;-48
2024/04/16 06:53:15;;;;;;;3.33;0.90;;;;;;;6.37;74.77;99358.66;5368683;26;19997;-52
2024/04/16 06:55:41;;;;;;;1.65;0.98;;;;;;;6.68;74.93;99361.03;5362932;26;20369;-51
2024/04/16 06:58:07;;;;;;;0.63;0.60;;;;;;;7.06;73.86;99384.75;5368695;26;20050;-46
2024/04/16 07:00:33;;;;;;;2.10;0.57;;;;;;;6.70;74.38;99396.97;5364758;26;20001;-50
2024/04/16 07:02:59;;;;;;;2.67;0.65;;;;;;;6.91;72.94;99394.16;5343053;26;19997;-50
2024/04/16 07:05:25;;;;;;;2.95;0.50;;;;;;;7.25;72.17;99402.34;5362511;26;20005;-51
2024/04/16 07:07:51;;;;;;;1.42;0.68;;;;;;;7.27;71.25;99413.63;5364519;26;20008;-50
2024/04/16 07:10:17;;;;;;;2.42;0.80;;;;;;;7.11;72.54;99424.84;5364988;26;20012;-50
2024/04/16 07:12:43;;;;;;;1.65;0.60;;;;;;;7.57;73.24;99438.97;5370405;26;20031;-51
2024/04/16 07:15:09;;;;;;;1.88;0.52;;;;;;;7.58;72.04;99446.78;5345857;26;20008;-49
2024/04/16 07:17:34;;;;;;;1.65;0.55;;;;;;;7.32;74.28;99455.59;5335360;26;19996;-53
2024/04/16 07:20:01;;;;;;;1.13;0.60;;;;;;;7.83;72.97;99455.81;5341589;26;20491;-54
2024/04/16 07:22:26;;;;;;;2.10;0.30;;;;;;;7.14;73.97;99463.50;5367357;26;20000;-52
2024/04/16 07:24:54;;;;;;;2.38;0.93;;;;;;;6.84;74.65;99470.69;5359600;26;20000;-51
2024/04/16 07:27:21;;;;;;;2.80;0.52;;;;;;;7.42;72.86;99475.75;5386194;26;19997;-54
2024/04/16 07:29:47;;;;;;;5.63;1.10;;;;;;;7.23;72.45;99489.94;5368609;26;20004;-51
2024/04/16 07:32:13;;;;;;;2.78;0.80;;;;;;;7.10;73.78;99494.72;5359330;26;20005;-54
2024/04/16 07:34:40;;;;;;;1.83;0.90;;;;;;;7.30;74.83;99514.03;5356185;26;20525;-53
2024/04/16 07:37:05;;;;;;;1.48;0.77;;;;;;;6.95;73.85;99521.81;5367333;26;20019;-50
2024/04/16 07:39:31;;;;;;;0.80;0.70;;;;;;;6.91;73.02;99520.44;5366850;26;20047;-57
2024/04/16 07:41:57;;;;;;;2.42;0.90;;;;;;;6.90;73.32;99530.19;5367293;26;20402;-54
2024/04/16 07:44:23;;;;;;;1.40;0.90;;;;;;;7.12;72.23;99543.09;5362834;26;20358;-53
2024/04/16 07:46:49;;;;;;;1.58;0.70;;;;;;;7.68;72.59;99541.34;5359133;26;20096;-50
2024/04/16 07:49:15;;;;;;;0.63;0.63;;;;;;;7.81;71.41;99540.00;5366712;26;20097;-54
2024/04/16 07:51:40;;;;;;;1.35;0.80;;;;;;;7.41;69.97;99548.31;5366844;26;20004;-49
2024/04/16 07:54:06;;;;;;;0.50;0.50;;;;;;;7.93;70.65;99553.91;5362768;26;20368;-55
2024/04/16 07:56:32;;;;;;;1.00;0.52;;;;;;;7.73;68.92;99566.44;5334002;26;20394;-48
2024/04/16 07:58:58;;;;;;;0.93;0.80;;;;;;;7.93;70.17;99572.47;5368103;26;20015;-50
2024/04/16 08:01:23;;;;;;;2.35;0.73;;;;;;;8.13;70.78;99583.81;5336808;26;20480;-52
2024/04/16 08:03:49;;;;;;;1.02;0.65;;;;;;;7.85;69.15;99591.78;5368581;26;20436;-53
2024/04/16 08:06:15;;;;;;;1.23;0.52;;;;;;;8.61;71.10;99605.56;5345818;26;20012;-51
2024/04/16 08:08:40;;;;;;;2.22;1.80;;;;;;;9.26;67.73;99610.56;5349596;26;20365;-52
2024/04/16 08:11:09;;;;;;;0.75;0.60;;;;;;;8.80;65.46;99621.34;5358348;26;20016;-53
2024/04/16 08:13:36;;;;;;;1.15;0.80;;;;;;;9.79;65.97;99632.50;5383505;26;19997;-51
2024/04/16 08:16:03;;;;;;;1.67;0.75;;;;;;;10.07;65.52;99638.47;5366335;26;19997;-53
2024/04/16 08:18:29;;;;;;;0.65;0.60;;;;;;;10.06;64.59;99652.75;5360483;26;20020;-48
2024/04/16 08:20:55;;;;;;;0.70;0.50;;;;;;;10.04;64.05;99649.41;5380685;26;19999;-51
2024/04/16 08:23:20;;;;;;;1.88;0.50;;;;;;;9.99;64.09;99659.72;5370708;26;20415;-53
2024/04/16 08:26:03;;;;;;;0.40;0.40;;;;;;;10.01;63.48;99677.19;5367455;26;19996;-54
2024/04/16 08:28:30;;;;;;;0.85;0.60;;;;;;;9.79;64.60;99677.75;5374752;26;20443;-54
2024/04/16 08:31:01;;;;;;;0.80;0.60;;;;;;;9.56;65.78;99685.41;5369790;26;20000;-53
2024/04/16 08:33:27;;;;;;;0.60;0.60;;;;;;;9.76;64.75;99687.84;5377314;26;20439;-53
2024/04/16 08:35:53;;;;;;;1.90;0.60;;;;;;;10.03;64.63;99695.66;5371812;26;20015;-52
2024/04/16 08:38:19;;;;;;;0.50;0.50;;;;;;;10.15;64.01;99704.22;5371210;26;20000;-48
2024/04/16 08:40:46;;;;;;;0.32;0.22;;;;;;;10.11;62.24;99709.00;5372553;26;19996;-51
2024/04/16 08:43:12;;;;;;;0.85;0.47;;;;;;;10.24;61.79;99713.88;5367836;26;19997;-51
2024/04/16 08:45:41;;;;;;;1.63;0.45;;;;;;;10.14;61.98;99719.34;5369439;26;20016;-52
2024/04/16 08:48:08;;;;;;;0.35;0.35;;;;;;;10.43;63.46;99724.28;5372836;26;20001;-51
2024/04/16 08:50:36;;;;;;;0.70;0.40;;;;;;;10.74;62.14;99725.44;5367885;26;20011;-50
2024/04/16 08:53:03;;;;;;;0.85;0.40;;;;;;;10.72;60.08;99730.06;5378251;26;20001;-54
2024/04/16 08:55:32;;;;;;;0.45;0.35;;;;;;;10.93;61.41;99740.28;5369267;26;20015;-59
2024/04/16 08:57:58;;;;;;;0.47;0.40;;;;;;;10.40;59.71;99753.91;5366888;26;20005;-52
2024/04/16 09:00:24;;;;;;;0.40;0.40;;;;;;;10.53;60.70;99757.00;5353636;26;20332;-51
2024/04/16 09:02:50;;;;;;;1.88;0.32;;;;;;;10.57;60.27;99761.00;5353271;26;20015;-55
2024/04/16 09:05:17;;;;;;;0.50;0.25;;;;;;;10.27;60.94;99762.34;5363226;26;20000;-56
2024/04/16 09:07:43;;;;;;;0.65;0.40;;;;;;;10.46;61.52;99771.91;5368091;26;20379;-54
2024/04/16 09:10:20;;;;;;;0.65;0.60;;;;;;;10.46;61.85;99784.41;5369753;26;20128;-54
2024/04/16 09:12:47;;;;;;;1.05;0.47;;;;;;;10.77;59.58;99797.03;5368771;26;23323;-50
2024/04/16 09:15:18;;;;;;;0.90;0.60;;;;;;;10.54;60.34;99795.13;5355744;26;20012;-52
2024/04/16 09:17:54;;;;;;;1.30;0.75;;;;;;;10.23;61.25;99813.41;5356867;26;21544;-53
2024/04/16 09:20:26;;;;;;;0.77;0.60;;;;;;;10.61;60.74;99818.31;5366574;26;20018;-51
2024/04/16 09:22:53;;;;;;;0.75;0.55;;;;;;;10.53;61.19;99831.59;5379022;26;20001;-51
2024/04/16 09:25:21;;;;;;;0.70;0.40;;;;;;;10.87;60.59;99828.91;5366742;26;20000;-49
2024/04/16 09:27:51;;;;;;;3.40;0.90;;;;;;;10.66;61.07;99831.16;5378201;26;20008;-54
2024/04/16 09:30:17;;;;;;;1.42;0.63;;;;;;;10.52;59.30;99843.19;5368428;26;20034;-52
2024/04/16 09:32:56;;;;;;;1.45;0.60;;;;;;;11.12;60.56;99849.31;5369645;26;20004;-49
2024/04/16 09:35:26;;;;;;;1.73;0.77;;;;;;;10.67;60.33;99852.31;5361386;26;20016;-57
2024/04/16 09:38:19;;;;;;;2.03;0.57;;;;;;;10.97;60.39;99860.75;5366666;26;20000;-53
2024/04/16 09:40:46;;;;;;;0.82;0.68;;;;;;;10.74;62.02;99868.50;5362941;26;21723;-56
2024/04/16 09:43:13;;;;;;;0.75;0.52;;;;;;;11.20;58.63;99881.34;5372707;26;20008;-55
2024/04/16 09:45:40;;;;;;;1.08;0.80;;;;;;;9.98;60.69;99886.94;5369288;26;20019;-56
2024/04/16 09:48:07;;;;;;;4.22;1.00;;;;;;;9.15;61.21;99886.25;5340732;26;20000;-48
2024/04/16 09:50:35;;;;;;;4.57;0.82;;;;;;;10.76;61.61;99891.31;5397795;26;20000;-50
2024/04/16 09:53:01;;;;;;;3.72;0.70;;;;;;;11.24;60.39;99899.69;5367743;26;20097;-47
2024/04/16 09:55:29;;;;;;;1.35;0.90;;;;;;;11.41;59.41;99902.22;5322536;26;20006;-57
2024/04/16 09:57:57;;;;;;;1.70;0.70;;;;;;;11.57;57.71;99909.44;5368803;26;20011;-49
2024/04/16 10:00:23;;;;;;;0.90;0.80;;;;;;;11.32;59.36;99911.19;5366723;26;20015;-50
2024/04/16 10:02:49;;;;;;;2.10;0.80;;;;;;;11.81;59.29;99920.19;5369996;26;20000;-55
2024/04/16 10:05:15;;;;;;;1.77;0.63;;;;;;;12.22;57.83;99915.69;5330407;26;20016;-50
2024/04/16 10:07:46;;;;;;;1.63;0.77;;;;;;;11.53;57.38;99922.28;5364572;26;19996;-50
2024/04/16 10:10:13;;;;;;;1.52;0.65;;;;;;;11.57;58.04;99923.63;5350645;26;20000;-50
2024/04/16 10:12:39;;;;;;;1.27;0.65;;;;;;;11.68;58.87;99935.00;5350547;26;20004;-53
2024/04/16 10:15:12;;;;;;;1.38;0.85;;;;;;;11.76;57.44;99935.88;5385448;26;20004;-53
2024/04/16 10:17:51;;;;;;;0.60;0.50;;;;;;;11.61;59.11;99948.19;5362435;26;20049;-52
2024/04/16 10:20:17;;;;;;;0.80;0.75;;;;;;;12.36;56.01;99960.44;5366642;26;20624;-53
2024/04/16 10:22:51;;;;;;;0.52;0.52;;;;;;;12.59;56.66;99973.97;5385449;26;19996;-52
2024/04/16 10:25:25;;;;;;;1.15;0.80;;;;;;;12.45;54.61;99973.81;5391716;26;20004;-50
2024/04/16 10:27:51;;;;;;;0.80;0.52;;;;;;;12.79;55.37;99973.63;5370062;26;20475;-50
2024/04/16 10:30:17;;;;;;;1.50;0.73;;;;;;;12.47;52.68;99977.94;5318053;26;20069;-52
2024/04/16 10:32:44;;;;;;;1.70;0.77;;;;;;;12.76;54.93;99985.47;5371052;26;20015;-52
2024/04/16 10:35:12;;;;;;;2.47;0.85;;;;;;;12.57;55.00;99997.34;5323538;26;20016;-51
2024/04/16 10:37:39;;;;;;;1.52;0.75;;;;;;;13.23;53.14;99987.38;5361537;26;20004;-55
2024/04/16 10:40:05;;;;;;;1.02;0.82;;;;;;;13.42;52.09;99987.78;5384193;26;20328;-51
2024/04/16 10:42:36;;;;;;;0.80;0.70;;;;;;;12.96;52.58;99999.31;5389349;26;20316;-57
2024/04/16 10:45:03;;;;;;;1.55;0.80;;;;;;;13.39;51.50;99998.00;5355868;26;19997;-53
2024/04/16 10:47:30;;;;;;;0.50;0.45;;;;;;;12.94;53.24;100006.69;5357886;26;20016;-54
2024/04/16 10:49:58;;;;;;;2.33;0.60;;;;;;;13.34;53.33;100006.56;5366411;26;20511;-51
2024/04/16 10:52:23;;;;;;;1.30;0.73;;;;;;;13.08;51.69;100019.38;5368091;26;19996;-49
2024/04/16 10:54:52;;;;;;;1.17;0.65;;;;;;;13.26;53.31;100019.13;5316012;26;20522;-52
2024/04/16 10:57:19;;;;;;;1.77;0.63;;;;;;;13.05;52.30;100025.88;5361578;26;20000;-51
2024/04/16 10:59:45;;;;;;;1.27;0.80;;;;;;;12.46;53.91;100034.25;5364016;26;20390;-52
2024/04/16 11:02:11;;;;;;;2.63;1.17;;;;;;;13.38;54.80;100029.28;5381211;26;20001;-49
2024/04/16 11:04:38;;;;;;;1.25;0.50;;;;;;;12.44;52.75;100037.09;5378862;26;20019;-53
2024/04/16 11:07:04;;;;;;;2.45;0.80;;;;;;;12.54;53.36;100044.94;5361800;26;21218;-53
2024/04/16 11:09:30;;;;;;;0.98;0.65;;;;;;;13.34;53.51;100044.03;5367108;26;20004;-55
2024/04/16 11:11:57;;;;;;;0.68;0.47;;;;;;;13.20;51.46;100051.94;5339547;26;20371;-51
2024/04/16 11:14:24;;;;;;;1.65;0.68;;;;;;;13.30;50.92;100057.91;5361335;26;20002;-56
2024/04/16 11:16:50;;;;;;;1.70;0.90;;;;;;;13.28;51.75;100065.31;5334097;26;20001;-48
2024/04/16 11:19:17;;;;;;;0.77;0.60;;;;;;;13.61;51.79;100058.03;5384388;26;20019;-49
2024/04/16 11:21:43;;;;;;;1.75;0.50;;;;;;;12.80;51.39;100068.88;5363141;26;21040;-50
2024/04/16 11:24:10;;;;;;;0.98;0.85;;;;;;;12.16;54.75;100071.28;5366076;26;20016;-55
2024/04/16 11:26:40;;;;;;;2.47;0.80;;;;;;;13.28;52.66;100078.69;5388115;26;22435;-52
2024/04/16 11:29:06;;;;;;;1.95;0.80;;;;;;;13.13;51.93;100089.25;5370030;26;20525;-48
2024/04/16 11:31:32;;;;;;;0.52;0.47;;;;;;;13.36;50.34;100092.00;5362257;26;20004;-52
2024/04/16 11:33:59;;;;;;;0.75;0.73;;;;;;;12.98;52.06;100097.09;5356741;26;20004;-56
2024/04/16 11:36:24;;;;;;;2.22;0.60;;;;;;;13.14;52.08;100104.28;5356194;26;20015;-47
2024/04/16 11:38:53;;;;;;;0.82;0.65;;;;;;;12.17;52.26;100104.19;5368985;26;20023;-51